createdAt,value
2018-09-29T00:00:07.570Z,988.38
2018-09-29T00:01:17.069Z,988.34
2018-09-29T00:02:26.830Z,988.3
2018-09-29T00:03:36.592Z,988.25
2018-09-29T00:04:46.081Z,988.22
2018-09-29T00:05:56.041Z,988.23
2018-09-29T00:07:05.537Z,988.22
2018-09-29T00:08:15.305Z,988.25
2018-09-29T00:09:25.071Z,988.25
2018-09-29T00:10:34.570Z,988.27
2018-09-29T00:11:44.331Z,988.26
2018-09-29T00:12:54.092Z,988.24
2018-09-29T00:14:03.852Z,988.21
2018-09-29T00:15:13.362Z,988.2
2018-09-29T00:16:23.435Z,988.14
2018-09-29T00:17:33.366Z,988.18
2018-09-29T00:18:43.398Z,988.19
2018-09-29T00:19:52.623Z,988.27
2018-09-29T00:21:01.846Z,988.25
2018-09-29T00:22:11.605Z,988.18
2018-09-29T00:23:21.145Z,988.18
2018-09-29T00:24:30.907Z,988.18
2018-09-29T00:25:40.939Z,988.17
2018-09-29T00:26:50.969Z,988.14
2018-09-29T00:28:01.007Z,988.17
2018-09-29T00:29:11.086Z,988.09
2018-09-29T00:30:20.845Z,988.1
2018-09-29T00:31:30.609Z,988.04
2018-09-29T00:32:40.636Z,988.02
2018-09-29T00:33:50.400Z,988.02
2018-09-29T00:35:00.484Z,988
2018-09-29T00:36:10.247Z,988.04
2018-09-29T00:37:20.005Z,988.04
2018-09-29T00:38:30.034Z,988.03
2018-09-29T00:39:40.064Z,988
2018-09-29T00:40:49.557Z,988.06
2018-09-29T00:41:59.590Z,988.12
2018-09-29T00:43:09.351Z,988.11
2018-09-29T00:44:19.109Z,988.06
2018-09-29T00:45:28.871Z,988.09
2018-09-29T00:46:38.951Z,988.05
2018-09-29T00:47:48.988Z,988.03
2018-09-29T00:48:59.018Z,988.04
2018-09-29T00:50:08.515Z,988.04
2018-09-29T00:51:18.004Z,987.92
2018-09-29T00:52:27.812Z,987.85
2018-09-29T00:53:37.570Z,987.73
2018-09-29T00:54:47.603Z,987.71
2018-09-29T00:55:57.629Z,987.7
2018-09-29T00:57:07.667Z,987.73
2018-09-29T00:58:17.431Z,987.7
2018-09-29T00:59:27.467Z,987.71
2018-09-29T01:00:37.227Z,987.74
2018-09-29T01:01:47.255Z,987.8
2018-09-29T01:02:57.021Z,987.84
2018-09-29T01:04:07.099Z,987.93
2018-09-29T01:05:16.864Z,987.94
2018-09-29T01:06:26.893Z,987.89
2018-09-29T01:07:36.929Z,987.91
2018-09-29T01:08:46.688Z,987.92
2018-09-29T01:09:56.494Z,987.85
2018-09-29T01:11:06.522Z,987.9
2018-09-29T01:12:16.013Z,987.88
2018-09-29T01:13:26.044Z,987.83
2018-09-29T01:14:35.805Z,987.8
2018-09-29T01:15:45.571Z,987.8
2018-09-29T01:16:55.386Z,987.78
2018-09-29T01:18:05.151Z,987.83
2018-09-29T01:19:14.920Z,987.87
2018-09-29T01:20:24.678Z,987.88
2018-09-29T01:21:34.435Z,987.91
2018-09-29T01:22:43.924Z,987.96
2018-09-29T01:23:53.688Z,987.96
2018-09-29T01:25:03.724Z,987.93
2018-09-29T01:26:13.482Z,987.9
2018-09-29T01:27:23.251Z,987.9
2018-09-29T01:28:32.471Z,987.85
2018-09-29T01:29:42.285Z,987.83
2018-09-29T01:30:52.311Z,987.85
2018-09-29T01:32:02.087Z,987.86
2018-09-29T01:33:11.847Z,987.82
2018-09-29T01:34:21.886Z,987.87
2018-09-29T01:35:31.645Z,987.92
2018-09-29T01:36:41.143Z,987.9
2018-09-29T01:37:50.911Z,987.86
2018-09-29T01:39:00.939Z,987.82
2018-09-29T01:40:10.961Z,987.86
2018-09-29T01:41:20.990Z,987.87
2018-09-29T01:42:31.012Z,987.84
2018-09-29T01:43:41.039Z,987.83
2018-09-29T01:44:50.797Z,987.75
2018-09-29T01:46:00.611Z,987.67
2018-09-29T01:47:10.633Z,987.61
2018-09-29T01:48:20.653Z,987.59
2018-09-29T01:49:30.414Z,987.63
2018-09-29T01:50:40.491Z,987.54
2018-09-29T01:51:50.248Z,987.57
2018-09-29T01:53:00.285Z,987.58
2018-09-29T01:54:10.312Z,987.51
2018-09-29T01:55:19.531Z,987.54
2018-09-29T01:56:29.127Z,987.57
2018-09-29T01:57:38.891Z,987.57
2018-09-29T01:58:48.917Z,987.52
2018-09-29T01:59:58.951Z,987.47
2018-09-29T02:01:08.989Z,987.43
2018-09-29T02:02:18.759Z,987.41
2018-09-29T02:03:28.795Z,987.42
2018-09-29T02:04:38.821Z,987.44
2018-09-29T02:05:48.046Z,987.37
2018-09-29T02:06:57.802Z,987.32
2018-09-29T02:08:07.617Z,987.3
2018-09-29T02:09:17.521Z,987.27
2018-09-29T02:10:27.284Z,987.22
2018-09-29T02:11:37.052Z,987.22
2018-09-29T02:12:46.831Z,987.14
2018-09-29T02:13:56.913Z,987.14
2018-09-29T02:15:06.416Z,987.1
2018-09-29T02:16:16.221Z,987.12
2018-09-29T02:17:26.249Z,987.09
2018-09-29T02:18:35.741Z,987.07
2018-09-29T02:19:45.503Z,987.08
2018-09-29T02:20:55.265Z,987.08
2018-09-29T02:22:05.021Z,986.99
2018-09-29T02:23:14.779Z,986.94
2018-09-29T02:24:24.535Z,986.96
2018-09-29T02:25:34.365Z,986.95
2018-09-29T02:26:44.124Z,986.99
2018-09-29T02:27:53.893Z,986.91
2018-09-29T02:29:03.756Z,986.91
2018-09-29T02:30:13.596Z,986.94
2018-09-29T02:31:24.192Z,986.93
2018-09-29T02:32:34.008Z,986.94
2018-09-29T02:33:43.785Z,986.94
2018-09-29T02:34:53.822Z,986.97
2018-09-29T02:36:03.321Z,986.96
2018-09-29T02:37:12.875Z,986.92
2018-09-29T02:38:22.917Z,986.91
2018-09-29T02:39:32.679Z,986.85
2018-09-29T02:40:42.715Z,986.8
2018-09-29T02:41:52.479Z,986.78
2018-09-29T02:43:02.305Z,986.71
2018-09-29T02:44:11.534Z,986.72
2018-09-29T02:45:21.569Z,986.62
2018-09-29T02:46:31.618Z,986.56
2018-09-29T02:47:41.645Z,986.56
2018-09-29T02:48:51.739Z,986.51
2018-09-29T02:50:01.518Z,986.49
2018-09-29T02:51:11.016Z,986.44
2018-09-29T02:52:20.794Z,986.37
2018-09-29T02:53:30.580Z,986.3
2018-09-29T02:54:40.353Z,986.26
2018-09-29T02:55:50.387Z,986.25
2018-09-29T02:57:00.430Z,986.25
2018-09-29T02:58:10.465Z,986.25
2018-09-29T02:59:19.961Z,986.19
2018-09-29T03:00:29.254Z,986.15
2018-09-29T03:01:39.286Z,986.07
2018-09-29T03:02:49.055Z,986.13
2018-09-29T03:03:59.109Z,986.11
2018-09-29T03:05:08.885Z,986.04
2018-09-29T03:06:18.647Z,986.01
2018-09-29T03:07:28.677Z,985.95
2018-09-29T03:08:38.448Z,985.93
2018-09-29T03:09:48.487Z,985.89
2018-09-29T03:10:58.562Z,985.89
2018-09-29T03:12:08.075Z,985.85
2018-09-29T03:13:17.844Z,985.83
2018-09-29T03:14:27.891Z,985.78
2018-09-29T03:15:37.664Z,985.73
2018-09-29T03:16:47.160Z,985.76
2018-09-29T03:17:56.924Z,985.69
2018-09-29T03:19:06.466Z,985.7
2018-09-29T03:20:16.413Z,985.63
2018-09-29T03:21:26.181Z,985.68
2018-09-29T03:22:36.222Z,985.73
2018-09-29T03:23:46.360Z,985.84
2018-09-29T03:24:56.395Z,985.9
2018-09-29T03:26:06.158Z,985.83
2018-09-29T03:27:16.187Z,985.78
2018-09-29T03:28:26.221Z,985.71
2018-09-29T03:29:35.769Z,985.62
2018-09-29T03:30:45.862Z,985.56
2018-09-29T03:31:55.399Z,985.53
2018-09-29T03:33:05.850Z,985.56
2018-09-29T03:34:15.888Z,985.58
2018-09-29T03:35:25.931Z,985.56
2018-09-29T03:36:35.973Z,985.58
2018-09-29T03:37:45.472Z,985.59
2018-09-29T03:38:55.237Z,985.55
2018-09-29T03:40:04.733Z,985.51
2018-09-29T03:41:14.764Z,985.52
2018-09-29T03:42:24.260Z,985.44
2018-09-29T03:43:34.290Z,985.38
2018-09-29T03:44:44.331Z,985.31
2018-09-29T03:45:54.112Z,985.29
2018-09-29T03:47:03.878Z,985.24
2018-09-29T03:48:13.642Z,985.2
2018-09-29T03:49:23.689Z,985.16
2018-09-29T03:50:33.720Z,985.19
2018-09-29T03:51:43.481Z,985.2
2018-09-29T03:52:52.710Z,985.19
2018-09-29T03:54:02.508Z,985.12
2018-09-29T03:55:12.546Z,985.19
2018-09-29T03:56:22.584Z,985.13
2018-09-29T03:57:32.617Z,985.14
2018-09-29T03:58:42.411Z,985.12
2018-09-29T03:59:52.446Z,985.12
2018-09-29T04:01:02.531Z,985.1
2018-09-29T04:02:12.292Z,985.13
2018-09-29T04:03:22.332Z,985.15
2018-09-29T04:04:32.103Z,985.09
2018-09-29T04:05:42.148Z,985.06
2018-09-29T04:06:51.648Z,985.02
2018-09-29T04:08:01.425Z,984.98
2018-09-29T04:09:11.463Z,984.94
2018-09-29T04:10:21.551Z,984.94
2018-09-29T04:11:31.588Z,984.93
2018-09-29T04:12:41.633Z,984.9
2018-09-29T04:13:51.397Z,984.86
2018-09-29T04:15:01.712Z,984.83
2018-09-29T04:16:11.492Z,984.83
2018-09-29T04:17:21.527Z,984.83
2018-09-29T04:18:31.296Z,984.77
2018-09-29T04:19:41.321Z,984.76
2018-09-29T04:20:51.350Z,984.78
2018-09-29T04:22:01.168Z,984.77
2018-09-29T04:23:10.659Z,984.78
2018-09-29T04:24:20.426Z,984.74
2018-09-29T04:25:30.454Z,984.7
2018-09-29T04:26:39.951Z,984.69
2018-09-29T04:27:50.027Z,984.64
2018-09-29T04:29:00.053Z,984.61
2018-09-29T04:30:09.820Z,984.6
2018-09-29T04:31:19.859Z,984.6
2018-09-29T04:32:29.891Z,984.56
2018-09-29T04:33:39.943Z,984.52
2018-09-29T04:34:49.971Z,984.46
2018-09-29T04:35:59.997Z,984.5
2018-09-29T04:37:10.023Z,984.5
2018-09-29T04:38:20.052Z,984.51
2018-09-29T04:39:29.596Z,984.48
2018-09-29T04:40:39.090Z,984.47
2018-09-29T04:41:48.878Z,984.51
2018-09-29T04:42:58.381Z,984.48
2018-09-29T04:44:08.701Z,984.54
2018-09-29T04:45:18.791Z,984.49
2018-09-29T04:46:28.831Z,984.42
2018-09-29T04:47:38.859Z,984.45
2018-09-29T04:48:48.898Z,984.38
2018-09-29T04:49:58.393Z,984.41
2018-09-29T04:51:08.212Z,984.4
2018-09-29T04:52:17.977Z,984.46
2018-09-29T04:53:28.005Z,984.4
2018-09-29T04:54:37.763Z,984.41
2018-09-29T04:55:47.795Z,984.35
2018-09-29T04:56:57.608Z,984.31
2018-09-29T04:58:07.109Z,984.37
2018-09-29T04:59:16.876Z,984.41
2018-09-29T05:00:26.639Z,984.46
2018-09-29T05:01:36.672Z,984.5
2018-09-29T05:02:46.443Z,984.55
2018-09-29T05:03:56.226Z,984.56
2018-09-29T05:05:05.986Z,984.56
2018-09-29T05:06:15.744Z,984.56
2018-09-29T05:07:25.638Z,984.58
2018-09-29T05:08:35.129Z,984.58
2018-09-29T05:09:44.888Z,984.56
2018-09-29T05:10:54.925Z,984.53
2018-09-29T05:12:04.685Z,984.48
2018-09-29T05:13:14.445Z,984.46
2018-09-29T05:14:24.481Z,984.42
2018-09-29T05:15:34.502Z,984.37
2018-09-29T05:16:44.557Z,984.39
2018-09-29T05:17:54.592Z,984.4
2018-09-29T05:19:04.081Z,984.37
2018-09-29T05:20:13.848Z,984.34
2018-09-29T05:21:23.882Z,984.36
2018-09-29T05:22:33.649Z,984.35
2018-09-29T05:23:43.412Z,984.29
2018-09-29T05:24:52.904Z,984.3
2018-09-29T05:26:02.767Z,984.21
2018-09-29T05:27:12.798Z,984.18
2018-09-29T05:28:22.564Z,984.09
2018-09-29T05:29:32.329Z,984.06
2018-09-29T05:30:42.122Z,984
2018-09-29T05:31:51.782Z,983.98
2018-09-29T05:33:01.815Z,983.93
2018-09-29T05:34:11.042Z,983.93
2018-09-29T05:35:20.279Z,983.86
2018-09-29T05:36:30.044Z,983.93
2018-09-29T05:37:39.571Z,983.89
2018-09-29T05:38:49.345Z,983.89
2018-09-29T05:39:59.110Z,983.92
2018-09-29T05:41:08.874Z,983.86
2018-09-29T05:42:18.943Z,983.89
2018-09-29T05:43:29.025Z,983.83
2018-09-29T05:44:39.054Z,983.79
2018-09-29T05:45:48.815Z,983.73
2018-09-29T05:46:58.571Z,983.69
2018-09-29T05:48:08.643Z,983.58
2018-09-29T05:49:19.100Z,983.59
2018-09-29T05:50:28.861Z,983.53
2018-09-29T05:51:38.353Z,983.52
2018-09-29T05:52:48.119Z,983.58
2018-09-29T05:53:57.890Z,983.61
2018-09-29T05:55:08.242Z,983.61
2018-09-29T05:56:18.268Z,983.52
2018-09-29T05:57:28.034Z,983.39
2018-09-29T05:58:38.110Z,983.36
2018-09-29T05:59:47.880Z,983.33
2018-09-29T06:00:57.428Z,983.3
2018-09-29T06:02:07.197Z,983.34
2018-09-29T06:03:16.696Z,983.33
2018-09-29T06:04:26.460Z,983.28
2018-09-29T06:05:36.572Z,983.23
2018-09-29T06:06:46.835Z,983.26
2018-09-29T06:07:56.671Z,983.28
2018-09-29T06:09:06.434Z,983.29
2018-09-29T06:10:16.473Z,983.24
2018-09-29T06:11:26.236Z,983.31
2018-09-29T06:12:36.010Z,983.21
2018-09-29T06:13:46.049Z,983.18
2018-09-29T06:14:55.550Z,983.21
2018-09-29T06:16:05.047Z,983.2
2018-09-29T06:17:14.813Z,983.15
2018-09-29T06:18:24.847Z,983.11
2018-09-29T06:19:34.339Z,983.09
2018-09-29T06:20:44.107Z,983.13
2018-09-29T06:21:54.102Z,983.12
2018-09-29T06:23:03.595Z,983.21
2018-09-29T06:24:13.144Z,983.15
2018-09-29T06:25:22.639Z,983.19
2018-09-29T06:26:32.687Z,983.16
2018-09-29T06:27:42.183Z,983.2
2018-09-29T06:28:52.390Z,983.18
2018-09-29T06:30:02.471Z,983.12
2018-09-29T06:31:12.247Z,983.04
2018-09-29T06:32:22.275Z,983.09
2018-09-29T06:33:32.041Z,983.03
2018-09-29T06:34:42.070Z,983.01
2018-09-29T06:35:51.847Z,982.99
2018-09-29T06:37:01.875Z,982.99
2018-09-29T06:38:11.644Z,982.92
2018-09-29T06:39:21.575Z,982.96
2018-09-29T06:40:37.645Z,982.9
2018-09-29T06:41:47.664Z,982.97
2018-09-29T06:42:57.394Z,982.98
2018-09-29T06:44:07.107Z,982.97
2018-09-29T06:45:17.140Z,982.98
2018-09-29T06:46:27.179Z,982.99
2018-09-29T06:47:37.302Z,982.97
2018-09-29T06:48:47.342Z,982.93
2018-09-29T06:49:57.111Z,982.95
2018-09-29T06:51:06.603Z,982.97
2018-09-29T06:52:16.632Z,982.91
2018-09-29T06:53:26.394Z,982.89
2018-09-29T06:54:36.481Z,982.88
2018-09-29T06:55:46.742Z,982.88
2018-09-29T06:56:56.511Z,982.87
2018-09-29T06:58:06.549Z,982.84
2018-09-29T06:59:16.361Z,982.85
2018-09-29T07:00:26.391Z,982.89
2018-09-29T07:01:36.195Z,982.88
2018-09-29T07:02:45.694Z,982.92
2018-09-29T07:03:55.539Z,982.9
2018-09-29T07:05:05.567Z,982.89
2018-09-29T07:06:15.602Z,982.9
2018-09-29T07:07:25.652Z,982.92
2018-09-29T07:08:35.194Z,982.94
2018-09-29T07:09:45.231Z,982.91
2018-09-29T07:10:57.256Z,982.89
2018-09-29T07:12:06.482Z,982.83
2018-09-29T07:13:16.250Z,982.82
2018-09-29T07:14:26.280Z,982.83
2018-09-29T07:15:36.320Z,982.73
2018-09-29T07:16:45.869Z,982.71
2018-09-29T07:17:55.902Z,982.63
2018-09-29T07:19:05.129Z,982.64
2018-09-29T07:20:15.168Z,982.65
2018-09-29T07:21:24.990Z,982.71
2018-09-29T07:22:34.614Z,982.73
2018-09-29T07:23:44.641Z,982.73
2018-09-29T07:24:54.133Z,982.71
2018-09-29T07:26:03.356Z,982.72
2018-09-29T07:27:13.413Z,982.75
2018-09-29T07:28:23.494Z,982.63
2018-09-29T07:29:33.536Z,982.62
2018-09-29T07:30:43.573Z,982.7
2018-09-29T07:31:53.338Z,982.67
2018-09-29T07:33:03.375Z,982.63
2018-09-29T07:34:13.460Z,982.67
2018-09-29T07:35:22.682Z,982.7
2018-09-29T07:36:32.706Z,982.7
2018-09-29T07:37:41.943Z,982.67
2018-09-29T07:38:51.976Z,982.68
2018-09-29T07:40:02.174Z,982.59
2018-09-29T07:41:11.413Z,982.61
2018-09-29T07:42:21.453Z,982.62
2018-09-29T07:43:31.223Z,982.67
2018-09-29T07:44:40.713Z,982.61
2018-09-29T07:45:50.530Z,982.67
2018-09-29T07:47:00.561Z,982.6
2018-09-29T07:48:10.592Z,982.56
2018-09-29T07:49:20.696Z,982.54
2018-09-29T07:50:30.845Z,982.56
2018-09-29T07:51:40.951Z,982.5
2018-09-29T07:52:50.445Z,982.49
2018-09-29T07:54:00.207Z,982.46
2018-09-29T07:55:09.700Z,982.52
2018-09-29T07:56:19.731Z,982.47
2018-09-29T07:57:29.551Z,982.51
2018-09-29T07:58:39.311Z,982.49
2018-09-29T07:59:49.073Z,982.54
2018-09-29T08:00:58.857Z,982.51
2018-09-29T08:02:08.623Z,982.51
2018-09-29T08:03:18.667Z,982.42
2018-09-29T08:04:28.707Z,982.42
2018-09-29T08:05:38.737Z,982.37
2018-09-29T08:06:48.501Z,982.35
2018-09-29T08:07:58.264Z,982.3
2018-09-29T08:09:08.079Z,982.34
2018-09-29T08:10:18.105Z,982.33
2018-09-29T08:11:28.140Z,982.32
2018-09-29T08:12:38.169Z,982.31
2018-09-29T08:13:47.934Z,982.28
2018-09-29T08:14:58.016Z,982.23
2018-09-29T08:16:07.515Z,982.2
2018-09-29T08:17:17.590Z,982.22
2018-09-29T08:18:27.618Z,982.16
2018-09-29T08:19:37.650Z,982.21
2018-09-29T08:20:47.739Z,982.19
2018-09-29T08:21:57.505Z,982.12
2018-09-29T08:23:07.275Z,982.22
2018-09-29T08:24:17.081Z,982.12
2018-09-29T08:25:26.519Z,982.16
2018-09-29T08:26:36.350Z,982.17
2018-09-29T08:27:46.115Z,982.11
2018-09-29T08:28:55.874Z,982.11
2018-09-29T08:30:05.640Z,982.12
2018-09-29T08:31:15.685Z,982.13
2018-09-29T08:32:25.736Z,982.05
2018-09-29T08:33:36.045Z,982.06
2018-09-29T08:34:46.077Z,982.03
2018-09-29T08:35:56.102Z,981.99
2018-09-29T08:37:06.130Z,982.02
2018-09-29T08:38:15.911Z,981.97
2018-09-29T08:39:25.405Z,981.99
2018-09-29T08:40:35.177Z,981.87
2018-09-29T08:41:44.936Z,981.82
2018-09-29T08:42:54.698Z,981.84
2018-09-29T08:44:04.804Z,981.78
2018-09-29T08:45:14.881Z,981.74
2018-09-29T08:46:24.917Z,981.72
2018-09-29T08:47:34.740Z,981.7
2018-09-29T08:48:44.511Z,981.72
2018-09-29T08:49:54.547Z,981.62
2018-09-29T08:51:04.305Z,981.64
2018-09-29T08:52:14.341Z,981.55
2018-09-29T08:53:24.134Z,981.57
2018-09-29T08:54:34.153Z,981.56
2018-09-29T08:55:44.188Z,981.58
2018-09-29T08:56:54.216Z,981.51
2018-09-29T08:58:03.977Z,981.47
2018-09-29T08:59:14.023Z,981.41
2018-09-29T09:00:23.519Z,981.39
2018-09-29T09:01:33.288Z,981.31
2018-09-29T09:02:43.049Z,981.2
2018-09-29T09:03:53.111Z,981.2
2018-09-29T09:05:03.181Z,981.25
2018-09-29T09:06:12.941Z,981.2
2018-09-29T09:07:22.440Z,981.1
2018-09-29T09:08:32.473Z,981.16
2018-09-29T09:09:42.239Z,981.07
2018-09-29T09:10:51.767Z,981.1
2018-09-29T09:12:01.812Z,981.02
2018-09-29T09:13:11.890Z,981.05
2018-09-29T09:14:21.920Z,981.03
2018-09-29T09:15:31.680Z,980.98
2018-09-29T09:16:41.447Z,980.98
2018-09-29T09:17:51.366Z,980.97
2018-09-29T09:19:01.131Z,981
2018-09-29T09:20:10.916Z,981.02
2018-09-29T09:21:20.684Z,980.98
2018-09-29T09:22:30.446Z,980.95
2018-09-29T09:23:40.229Z,980.98
2018-09-29T09:24:50.557Z,981.07
2018-09-29T09:26:00.590Z,981.01
2018-09-29T09:27:10.359Z,981.03
2018-09-29T09:28:20.461Z,980.97
2018-09-29T09:29:30.490Z,981.01
2018-09-29T09:30:40.338Z,981.02
2018-09-29T09:31:50.104Z,980.96
2018-09-29T09:33:00.152Z,980.84
2018-09-29T09:34:10.199Z,980.88
2018-09-29T09:35:19.692Z,980.83
2018-09-29T09:36:29.726Z,980.83
2018-09-29T09:37:39.216Z,980.74
2018-09-29T09:38:48.708Z,980.84
2018-09-29T09:39:58.738Z,980.8
2018-09-29T09:41:08.513Z,980.84
2018-09-29T09:42:18.540Z,980.81
2018-09-29T09:43:28.318Z,980.74
2018-09-29T09:44:38.826Z,980.69
2018-09-29T09:45:48.857Z,980.67
2018-09-29T09:46:58.884Z,980.66
2018-09-29T09:48:08.924Z,980.61
2018-09-29T09:49:18.438Z,980.6
2018-09-29T09:50:28.378Z,980.57
2018-09-29T09:51:37.876Z,980.62
2018-09-29T09:52:47.646Z,980.5
2018-09-29T09:53:57.409Z,980.45
2018-09-29T09:55:07.447Z,980.38
2018-09-29T09:56:16.682Z,980.47
2018-09-29T09:57:26.711Z,980.34
2018-09-29T09:58:36.209Z,980.26
2018-09-29T09:59:45.969Z,980.2
2018-09-29T10:00:55.197Z,980.21
2018-09-29T10:02:04.961Z,980.17
2018-09-29T10:03:14.724Z,980.13
2018-09-29T10:04:24.755Z,980.13
2018-09-29T10:05:34.302Z,980.11
2018-09-29T10:06:43.799Z,980.09
2018-09-29T10:07:53.317Z,980.03
2018-09-29T10:09:03.353Z,980.07
2018-09-29T10:10:12.850Z,979.96
2018-09-29T10:11:22.610Z,980
2018-09-29T10:12:32.647Z,979.88
2018-09-29T10:13:42.411Z,979.77
2018-09-29T10:14:52.438Z,979.76
2018-09-29T10:16:01.669Z,979.72
2018-09-29T10:17:11.752Z,979.73
2018-09-29T10:18:21.903Z,979.64
2018-09-29T10:19:31.933Z,979.6
2018-09-29T10:20:41.961Z,979.57
2018-09-29T10:21:51.991Z,979.65
2018-09-29T10:23:02.028Z,979.63
2018-09-29T10:24:11.530Z,979.57
2018-09-29T10:25:21.292Z,979.48
2018-09-29T10:26:31.321Z,979.47
2018-09-29T10:27:41.378Z,979.49
2018-09-29T10:28:51.149Z,979.45
2018-09-29T10:30:00.911Z,979.51
2018-09-29T10:31:10.678Z,979.58
2018-09-29T10:32:19.902Z,979.59
2018-09-29T10:33:29.668Z,979.64
2018-09-29T10:34:39.511Z,979.61
2018-09-29T10:35:49.021Z,979.61
2018-09-29T10:36:58.786Z,979.57
2018-09-29T10:38:08.819Z,979.48
2018-09-29T10:39:18.859Z,979.49
2018-09-29T10:40:28.625Z,979.55
2018-09-29T10:41:38.122Z,979.55
2018-09-29T10:42:47.890Z,979.51
2018-09-29T10:43:57.673Z,979.46
2018-09-29T10:45:07.891Z,979.42
2018-09-29T10:46:17.659Z,979.37
2018-09-29T10:47:27.712Z,979.34
2018-09-29T10:48:37.483Z,979.34
2018-09-29T10:49:47.292Z,979.38
2018-09-29T10:50:57.374Z,979.26
2018-09-29T10:52:07.153Z,979.19
2018-09-29T10:53:16.912Z,979.12
2018-09-29T10:54:26.951Z,979.16
2018-09-29T10:55:36.983Z,979.06
2018-09-29T10:56:47.015Z,979.02
2018-09-29T10:57:57.101Z,979.05
2018-09-29T10:59:06.356Z,979.12
2018-09-29T11:00:16.959Z,979.11
2018-09-29T11:01:26.728Z,979.09
2018-09-29T11:02:36.561Z,978.98
2018-09-29T11:03:46.729Z,979.04
2018-09-29T11:04:56.771Z,978.98
2018-09-29T11:06:06.507Z,978.97
2018-09-29T11:07:16.274Z,978.97
2018-09-29T11:08:26.314Z,979.07
2018-09-29T11:09:36.358Z,979.09
2018-09-29T11:10:45.862Z,979.08
2018-09-29T11:11:55.359Z,979.08
2018-09-29T11:13:05.392Z,979.01
2018-09-29T11:14:15.482Z,979.01
2018-09-29T11:15:25.845Z,979.06
2018-09-29T11:16:35.071Z,979.07
2018-09-29T11:17:45.104Z,979.07
2018-09-29T11:18:55.135Z,979.15
2018-09-29T11:20:04.921Z,979.06
2018-09-29T11:21:14.998Z,979.17
2018-09-29T11:22:24.774Z,979.14
2018-09-29T11:23:34.539Z,979.05
2018-09-29T11:24:44.306Z,979.07
2018-09-29T11:25:54.337Z,979.12
2018-09-29T11:27:04.370Z,979.16
2018-09-29T11:28:14.402Z,979.23
2018-09-29T11:29:24.554Z,979.2
2018-09-29T11:30:34.594Z,979.08
2018-09-29T11:31:44.629Z,979.03
2018-09-29T11:32:56.668Z,978.89
2018-09-29T11:34:06.443Z,978.83
2018-09-29T11:35:16.471Z,978.87
2018-09-29T11:36:26.514Z,978.82
2018-09-29T11:37:36.543Z,978.97
2018-09-29T11:38:46.608Z,978.85
2018-09-29T11:39:56.373Z,978.76
2018-09-29T11:41:06.411Z,978.66
2018-09-29T11:42:16.449Z,978.67
2018-09-29T11:43:26.215Z,978.76
2018-09-29T11:44:36.294Z,978.79
2018-09-29T11:45:46.679Z,978.81
2018-09-29T11:46:56.447Z,978.81
2018-09-29T11:48:06.477Z,978.7
2018-09-29T11:49:16.511Z,978.7
2018-09-29T11:50:26.558Z,978.72
2018-09-29T11:51:36.589Z,978.66
2018-09-29T11:52:46.363Z,978.73
2018-09-29T11:53:56.399Z,978.61
2018-09-29T11:55:06.165Z,978.66
2018-09-29T11:56:16.250Z,978.69
2018-09-29T11:57:26.536Z,978.5
2018-09-29T11:58:36.305Z,978.41
2018-09-29T11:59:46.339Z,978.44
2018-09-29T12:00:55.846Z,978.36
2018-09-29T12:02:05.973Z,978.27
2018-09-29T12:03:16.372Z,978.23
2018-09-29T12:04:26.411Z,978.22
2018-09-29T12:05:36.177Z,978.12
2018-09-29T12:06:46.259Z,978.13
2018-09-29T12:07:56.338Z,978.15
2018-09-29T12:09:06.484Z,978.16
2018-09-29T12:10:16.528Z,978.12
2018-09-29T12:11:26.562Z,978.17
2018-09-29T12:12:36.600Z,978.12
2018-09-29T12:13:48.398Z,978.12
2018-09-29T12:14:58.356Z,977.99
2018-09-29T12:16:08.125Z,977.94
2018-09-29T12:17:18.159Z,977.96
2018-09-29T12:18:28.190Z,977.94
2018-09-29T12:19:38.002Z,977.89
2018-09-29T12:20:47.765Z,977.86
2018-09-29T12:21:57.542Z,978.05
2018-09-29T12:23:07.605Z,977.84
2018-09-29T12:24:17.643Z,977.77
2018-09-29T12:25:27.138Z,977.68
2018-09-29T12:26:37.175Z,977.78
2018-09-29T12:27:46.669Z,977.73
2018-09-29T12:28:56.700Z,977.83
2018-09-29T12:30:06.472Z,977.83
2018-09-29T12:31:16.249Z,977.81
2018-09-29T12:32:26.284Z,977.83
2018-09-29T12:33:36.322Z,977.71
2018-09-29T12:34:46.095Z,977.77
2018-09-29T12:35:56.127Z,977.77
2018-09-29T12:37:05.989Z,977.82
2018-09-29T12:38:17.273Z,977.76
2018-09-29T12:39:27.308Z,977.75
2018-09-29T12:40:37.072Z,977.66
2018-09-29T12:41:46.854Z,977.69
2018-09-29T12:42:56.893Z,977.61
2018-09-29T12:44:06.395Z,977.61
2018-09-29T12:45:15.681Z,977.54
2018-09-29T12:46:25.447Z,977.44
2018-09-29T12:47:35.041Z,977.48
2018-09-29T12:48:45.584Z,977.4
2018-09-29T12:49:55.618Z,977.35
2018-09-29T12:51:05.747Z,977.28
2018-09-29T12:52:15.779Z,977.24
2018-09-29T12:53:25.279Z,977.25
2018-09-29T12:54:34.780Z,977.23
2018-09-29T12:55:44.824Z,977.07
2018-09-29T12:56:54.593Z,977.07
2018-09-29T12:58:04.085Z,977.03
2018-09-29T12:59:13.856Z,977.02
2018-09-29T13:00:23.364Z,977.05
2018-09-29T13:01:33.137Z,977.11
2018-09-29T13:02:43.172Z,977.23
2018-09-29T13:03:52.947Z,977.16
2018-09-29T13:05:02.736Z,977.11
2018-09-29T13:06:13.103Z,977.11
2018-09-29T13:07:22.603Z,977.02
2018-09-29T13:08:32.370Z,977.06
2018-09-29T13:09:42.412Z,976.97
2018-09-29T13:10:52.192Z,977
2018-09-29T13:12:01.942Z,977.08
2018-09-29T13:13:11.439Z,976.98
2018-09-29T13:14:20.935Z,976.96
2018-09-29T13:15:30.978Z,976.98
2018-09-29T13:16:40.479Z,976.89
2018-09-29T13:17:50.199Z,976.86
2018-09-29T13:19:00.230Z,976.92
2018-09-29T13:20:10.001Z,976.89
2018-09-29T13:21:19.774Z,976.85
2018-09-29T13:22:29.546Z,976.77
2018-09-29T13:23:39.624Z,976.77
2018-09-29T13:24:49.386Z,976.83
2018-09-29T13:25:59.412Z,976.78
2018-09-29T13:27:08.904Z,976.71
2018-09-29T13:28:18.954Z,976.82
2018-09-29T13:29:28.801Z,976.71
2018-09-29T13:30:39.200Z,976.74
2018-09-29T13:31:49.266Z,976.54
2018-09-29T13:32:59.786Z,976.57
2018-09-29T13:34:09.285Z,976.57
2018-09-29T13:35:19.059Z,976.58
2018-09-29T13:36:28.824Z,976.61
2018-09-29T13:37:38.592Z,976.59
2018-09-29T13:38:48.357Z,976.56
2018-09-29T13:39:58.120Z,976.5
2018-09-29T13:41:07.349Z,976.36
2018-09-29T13:42:16.851Z,976.34
2018-09-29T13:43:26.883Z,976.33
2018-09-29T13:44:36.920Z,976.48
2018-09-29T13:45:46.706Z,976.41
2018-09-29T13:46:56.951Z,976.37
2018-09-29T13:48:06.999Z,976.31
2018-09-29T13:49:17.035Z,976.23
2018-09-29T13:50:26.540Z,976.22
2018-09-29T13:51:36.575Z,976.22
2018-09-29T13:52:46.336Z,976.32
2018-09-29T13:53:56.375Z,976.25
2018-09-29T13:55:06.416Z,976.23
2018-09-29T13:56:16.451Z,976.14
2018-09-29T13:57:25.951Z,976
2018-09-29T13:58:35.995Z,976.03
2018-09-29T13:59:46.023Z,976.02
2018-09-29T14:00:56.058Z,976.03
2018-09-29T14:02:06.149Z,975.99
2018-09-29T14:03:16.054Z,975.82
2018-09-29T14:04:25.822Z,975.92
2018-09-29T14:05:35.054Z,975.92
2018-09-29T14:06:45.092Z,975.95
2018-09-29T14:07:54.868Z,975.91
2018-09-29T14:09:04.644Z,975.88
2018-09-29T14:10:14.725Z,975.94
2018-09-29T14:11:24.490Z,976.03
2018-09-29T14:12:34.287Z,976
2018-09-29T14:13:44.333Z,975.9
2018-09-29T14:14:54.106Z,975.9
2018-09-29T14:16:04.147Z,975.84
2018-09-29T14:17:14.188Z,975.86
2018-09-29T14:18:24.226Z,975.78
2018-09-29T14:19:33.452Z,975.84
2018-09-29T14:20:43.491Z,975.72
2018-09-29T14:21:53.262Z,975.89
2018-09-29T14:23:03.297Z,975.93
2018-09-29T14:24:13.333Z,975.96
2018-09-29T14:25:22.830Z,975.95
2018-09-29T14:26:32.102Z,975.97
2018-09-29T14:27:42.136Z,975.84
2018-09-29T14:28:51.908Z,975.86
2018-09-29T14:30:01.460Z,975.87
2018-09-29T14:31:12.039Z,975.94
2018-09-29T14:32:22.076Z,975.98
2018-09-29T14:33:31.571Z,975.92
2018-09-29T14:34:41.345Z,976.04